createdAt,value
2019-03-27T00:02:03.679Z,99.90
2019-03-27T00:04:39.030Z,99.90
2019-03-27T00:07:14.753Z,99.90
2019-03-27T00:09:45.418Z,99.90
2019-03-27T00:12:16.323Z,99.90
2019-03-27T00:15:13.635Z,99.90
2019-03-27T00:18:02.513Z,99.90
2019-03-27T00:20:41.460Z,99.90
2019-03-27T00:23:16.543Z,99.90
2019-03-27T00:25:46.786Z,99.90
2019-03-27T00:28:20.513Z,99.90
2019-03-27T00:30:51.047Z,99.90
2019-03-27T00:33:21.480Z,99.90
2019-03-27T00:35:52.752Z,99.90
2019-03-27T00:38:24.548Z,99.90
2019-03-27T00:40:56.265Z,99.90
2019-03-27T00:43:28.435Z,99.90
2019-03-27T00:46:04.756Z,99.90
2019-03-27T00:48:35.306Z,99.90
2019-03-27T00:51:05.634Z,99.90
2019-03-27T00:53:36.051Z,99.90
2019-03-27T00:56:06.974Z,99.90
2019-03-27T00:58:37.619Z,99.90
2019-03-27T01:01:14.310Z,99.90
2019-03-27T01:03:49.474Z,99.90
2019-03-27T01:06:19.745Z,99.90
2019-03-27T01:08:50.004Z,99.90
2019-03-27T01:11:20.241Z,99.90
2019-03-27T01:13:56.221Z,99.90
2019-03-27T01:16:26.680Z,99.90
2019-03-27T01:19:05.334Z,99.90
2019-03-27T01:21:38.009Z,99.90
2019-03-27T01:24:09.133Z,99.90
2019-03-27T01:26:39.692Z,99.90
2019-03-27T01:29:10.000Z,99.90
2019-03-27T01:31:40.227Z,99.90
2019-03-27T01:34:11.714Z,99.90
2019-03-27T01:36:41.942Z,99.90
2019-03-27T01:39:12.368Z,99.90
2019-03-27T01:41:44.434Z,99.90
2019-03-27T01:44:14.928Z,99.90
2019-03-27T01:46:48.906Z,99.90
2019-03-27T01:49:19.791Z,99.90
2019-03-27T01:51:50.080Z,99.90
2019-03-27T01:54:22.538Z,99.90
2019-03-27T01:56:55.256Z,99.90
2019-03-27T01:59:26.787Z,99.90
2019-03-27T02:01:59.870Z,99.90
2019-03-27T02:04:31.530Z,99.90
2019-03-27T02:07:12.364Z,99.90
2019-03-27T02:09:46.025Z,99.90
2019-03-27T02:12:17.414Z,99.90
2019-03-27T02:14:48.195Z,99.90
2019-03-27T02:17:19.603Z,99.90
2019-03-27T02:19:50.421Z,99.90
2019-03-27T02:22:21.113Z,99.90
2019-03-27T02:24:51.577Z,99.90
2019-03-27T02:27:21.953Z,99.90
2019-03-27T02:29:52.130Z,99.90
2019-03-27T02:32:24.532Z,99.90
2019-03-27T02:34:56.186Z,99.90
2019-03-27T02:37:27.218Z,99.90
2019-03-27T02:39:57.483Z,99.90
2019-03-27T02:42:28.170Z,99.90
2019-03-27T02:44:58.343Z,99.90
2019-03-27T02:47:29.213Z,99.90
2019-03-27T02:49:59.320Z,99.90
2019-03-27T02:52:29.518Z,99.90
2019-03-27T02:55:03.381Z,99.90
2019-03-27T02:57:33.663Z,99.90
2019-03-27T03:00:04.077Z,99.90
2019-03-27T03:02:34.725Z,99.90
2019-03-27T03:05:06.287Z,99.90
2019-03-27T03:07:37.133Z,99.90
2019-03-27T03:10:13.626Z,99.90
2019-03-27T03:12:43.686Z,99.90
2019-03-27T03:15:15.601Z,99.90
2019-03-27T03:17:48.391Z,99.90
2019-03-27T03:20:18.715Z,99.90
2019-03-27T03:22:49.170Z,99.90
2019-03-27T03:25:19.465Z,99.90
2019-03-27T03:27:50.529Z,99.90
2019-03-27T03:30:21.064Z,99.90
2019-03-27T03:32:51.605Z,99.90
2019-03-27T03:35:23.463Z,99.90
2019-03-27T03:37:53.823Z,99.90
2019-03-27T03:40:24.144Z,99.90
2019-03-27T03:42:54.392Z,99.90
2019-03-27T03:45:24.654Z,99.90
2019-03-27T03:47:55.340Z,99.90
2019-03-27T03:50:43.026Z,99.90
2019-03-27T03:53:15.323Z,99.90
2019-03-27T03:55:45.987Z,99.90
2019-03-27T03:58:17.415Z,99.90
2019-03-27T04:00:47.748Z,99.90
2019-03-27T04:03:18.154Z,99.90
2019-03-27T04:05:52.172Z,99.90
2019-03-27T04:08:23.753Z,99.90
2019-03-27T04:10:54.150Z,99.90
2019-03-27T04:13:24.405Z,99.90
2019-03-27T04:15:54.635Z,99.90
2019-03-27T04:18:25.309Z,99.90
2019-03-27T04:20:58.653Z,99.90
2019-03-27T04:23:28.979Z,99.90
2019-03-27T04:26:09.471Z,99.90
2019-03-27T04:28:31.300Z,99.90
2019-03-27T04:31:01.637Z,99.90
2019-03-27T04:33:31.870Z,99.90
2019-03-27T04:36:02.892Z,99.90
2019-03-27T04:38:33.103Z,99.90
2019-03-27T04:41:03.531Z,99.90
2019-03-27T04:43:33.772Z,99.90
2019-03-27T04:46:04.308Z,99.90
2019-03-27T04:48:36.098Z,99.90
2019-03-27T04:51:06.369Z,99.90
2019-03-27T04:53:36.746Z,99.90
2019-03-27T04:56:07.336Z,99.90
2019-03-27T04:58:44.003Z,99.90
2019-03-27T05:01:14.956Z,99.90
2019-03-27T05:03:45.321Z,99.90
2019-03-27T05:06:16.452Z,99.90
2019-03-27T05:08:48.182Z,99.90
2019-03-27T05:11:20.576Z,99.90
2019-03-27T05:13:50.910Z,99.90
2019-03-27T05:16:21.444Z,99.90
2019-03-27T05:18:52.140Z,99.90
2019-03-27T05:21:22.720Z,99.90
2019-03-27T05:23:53.628Z,99.90
2019-03-27T05:26:24.258Z,99.90
2019-03-27T05:28:54.627Z,99.90
2019-03-27T05:31:26.579Z,99.90
2019-03-27T05:33:56.884Z,99.90
2019-03-27T05:36:31.094Z,99.90
2019-03-27T05:39:01.415Z,99.90
2019-03-27T05:41:33.692Z,99.90
2019-03-27T05:44:04.297Z,99.90
2019-03-27T05:46:34.646Z,99.90
2019-03-27T05:49:05.315Z,99.90
2019-03-27T05:51:38.857Z,99.90
2019-03-27T05:54:09.141Z,99.90
2019-03-27T05:56:39.767Z,99.90
2019-03-27T05:59:09.992Z,99.90
2019-03-27T06:01:47.373Z,99.90
2019-03-27T06:04:17.967Z,99.90
2019-03-27T06:06:48.977Z,99.90
2019-03-27T06:09:19.367Z,99.90
2019-03-27T06:11:49.685Z,99.90
2019-03-27T06:14:20.011Z,99.90
2019-03-27T06:16:50.424Z,99.90
2019-03-27T06:19:30.362Z,99.90
2019-03-27T06:22:00.636Z,99.90
2019-03-27T06:24:32.380Z,99.90
2019-03-27T06:27:04.096Z,99.90
2019-03-27T06:29:43.674Z,99.90
2019-03-27T06:32:14.608Z,99.90
2019-03-27T06:34:45.316Z,99.90
2019-03-27T06:37:15.923Z,99.90
2019-03-27T06:39:49.055Z,99.90
2019-03-27T06:42:19.487Z,99.90
2019-03-27T06:44:50.002Z,99.90
2019-03-27T06:47:20.439Z,99.90
2019-03-27T06:49:58.999Z,99.90
2019-03-27T06:52:29.221Z,99.90
2019-03-27T06:54:59.919Z,99.90
2019-03-27T06:57:30.846Z,99.90
2019-03-27T07:00:01.139Z,99.90
2019-03-27T07:02:31.543Z,99.90
2019-03-27T07:05:02.399Z,99.90
2019-03-27T07:07:32.901Z,99.90
2019-03-27T07:10:03.362Z,99.90
2019-03-27T07:12:34.100Z,99.90
2019-03-27T07:15:04.762Z,99.90
2019-03-27T07:17:35.200Z,99.90
2019-03-27T07:20:06.622Z,99.90
2019-03-27T07:22:37.704Z,99.90
2019-03-27T07:25:09.185Z,99.90
2019-03-27T07:27:39.672Z,99.90
2019-03-27T07:30:13.038Z,99.90
2019-03-27T07:32:43.362Z,99.90
2019-03-27T07:35:17.809Z,99.90
2019-03-27T07:37:51.179Z,99.90
2019-03-27T07:40:22.654Z,99.90
2019-03-27T07:42:54.190Z,99.90
2019-03-27T07:45:24.960Z,99.90
2019-03-27T07:47:59.911Z,99.90
2019-03-27T07:50:30.779Z,99.90
2019-03-27T07:53:05.311Z,99.90
2019-03-27T07:55:38.204Z,99.90
2019-03-27T07:58:10.688Z,99.90
2019-03-27T08:00:49.394Z,99.90
2019-03-27T08:03:33.207Z,99.90
2019-03-27T08:06:05.337Z,99.90
2019-03-27T08:08:39.187Z,99.90
2019-03-27T08:11:14.247Z,99.90
2019-03-27T08:13:52.083Z,99.90
2019-03-27T08:16:27.248Z,99.90
2019-03-27T08:19:07.411Z,99.90
2019-03-27T08:21:34.824Z,99.90
2019-03-27T08:24:06.069Z,99.90
2019-03-27T08:26:36.375Z,99.90
2019-03-27T08:29:10.240Z,99.90
2019-03-27T08:31:44.567Z,99.90
2019-03-27T08:34:15.131Z,99.90
2019-03-27T08:36:45.591Z,99.90
2019-03-27T08:39:16.092Z,99.90
2019-03-27T08:41:49.997Z,99.90
2019-03-27T08:44:21.229Z,99.90
2019-03-27T08:46:53.375Z,99.90
2019-03-27T08:49:29.170Z,99.90
2019-03-27T08:52:00.831Z,99.90
2019-03-27T08:54:31.747Z,99.90
2019-03-27T08:57:02.740Z,99.90
2019-03-27T08:59:33.603Z,99.90
2019-03-27T09:02:04.247Z,99.90
2019-03-27T09:04:36.888Z,99.90
2019-03-27T09:07:07.444Z,99.90
2019-03-27T09:09:38.271Z,99.90
2019-03-27T09:12:13.093Z,99.90
2019-03-27T09:14:41.960Z,99.90
2019-03-27T09:17:13.815Z,99.90
2019-03-27T09:19:44.414Z,99.90
2019-03-27T09:22:23.095Z,99.90
2019-03-27T09:25:05.222Z,99.90
2019-03-27T09:27:47.211Z,99.30
2019-03-27T09:30:24.086Z,98.00
2019-03-27T09:32:59.291Z,99.90
2019-03-27T09:35:33.988Z,99.90
2019-03-27T09:38:04.358Z,99.90
2019-03-27T09:40:36.810Z,92.60
2019-03-27T09:43:08.284Z,73.20
2019-03-27T09:45:38.777Z,83.90
2019-03-27T09:48:09.668Z,72.00
2019-03-27T09:50:39.998Z,72.70
2019-03-27T09:53:11.716Z,83.60
2019-03-27T09:55:45.298Z,90.80
2019-03-27T09:58:17.190Z,89.10
2019-03-27T10:00:59.015Z,87.80
2019-03-27T10:03:32.082Z,82.40
2019-03-27T10:06:02.821Z,83.70
2019-03-27T10:08:36.179Z,87.40
2019-03-27T10:11:08.647Z,93.30
2019-03-27T10:13:47.087Z,97.80
2019-03-27T10:16:17.731Z,99.90
2019-03-27T10:18:53.511Z,99.90
2019-03-27T10:21:28.334Z,99.90
2019-03-27T10:24:19.572Z,99.90
2019-03-27T10:26:50.376Z,99.90
2019-03-27T10:29:23.580Z,99.70
2019-03-27T10:31:57.406Z,99.90
2019-03-27T10:34:31.439Z,99.90
2019-03-27T10:37:03.042Z,99.90
2019-03-27T10:39:36.602Z,99.90
2019-03-27T10:42:09.736Z,99.90
2019-03-27T10:44:46.317Z,99.90
2019-03-27T10:47:21.752Z,99.90
2019-03-27T10:50:17.798Z,99.90
2019-03-27T10:52:45.486Z,99.40
2019-03-27T10:55:16.418Z,94.40
2019-03-27T10:57:54.080Z,86.10
2019-03-27T11:00:25.033Z,87.20
2019-03-27T11:03:00.193Z,85.00
2019-03-27T11:05:42.187Z,87.40
2019-03-27T11:08:24.454Z,78.80
2019-03-27T11:11:15.138Z,77.90
2019-03-27T11:14:02.720Z,92.20
2019-03-27T11:16:53.927Z,93.60
2019-03-27T11:19:40.287Z,91.80
2019-03-27T11:22:37.742Z,87.20
2019-03-27T11:25:16.442Z,90.10
2019-03-27T11:28:27.078Z,85.40
2019-03-27T11:31:02.217Z,78.90
2019-03-27T11:34:11.100Z,75.30
2019-03-27T11:36:42.354Z,77.20
2019-03-27T11:39:39.238Z,81.90
2019-03-27T11:42:45.153Z,83.50
2019-03-27T11:45:25.926Z,76.30
2019-03-27T11:48:01.279Z,63.60
2019-03-27T11:50:47.140Z,55.00
2019-03-27T11:53:42.883Z,49.60
2019-03-27T11:56:42.501Z,47.10
2019-03-27T11:59:20.757Z,45.60
2019-03-27T12:02:22.214Z,45.20
2019-03-27T12:08:38.463Z,46.00
2019-03-27T12:11:12.573Z,48.40
2019-03-27T12:13:49.082Z,51.90
2019-03-27T12:16:22.386Z,55.20
2019-03-27T12:22:26.224Z,55.70
2019-03-27T12:25:22.570Z,57.40
2019-03-27T12:28:14.519Z,65.30
2019-03-27T12:31:12.237Z,69.50
2019-03-27T12:33:59.299Z,74.90
2019-03-27T12:36:58.672Z,91.00
2019-03-27T12:39:45.160Z,92.40
2019-03-27T12:42:18.224Z,87.80
2019-03-27T12:45:01.501Z,79.10
2019-03-27T12:47:48.117Z,81.90
2019-03-27T12:50:18.712Z,80.10
2019-03-27T12:52:50.105Z,70.00
2019-03-27T12:55:22.234Z,67.70
2019-03-27T12:57:55.121Z,64.80
2019-03-27T13:00:28.849Z,64.60
2019-03-27T13:03:02.084Z,65.40
2019-03-27T13:05:32.380Z,63.50
2019-03-27T13:08:03.304Z,59.70
2019-03-27T13:10:37.543Z,60.50
2019-03-27T13:13:10.234Z,57.40
2019-03-27T13:15:44.170Z,55.10
2019-03-27T13:18:14.609Z,54.40
2019-03-27T13:20:45.173Z,52.40
2019-03-27T13:23:15.962Z,51.80
2019-03-27T13:25:50.687Z,51.70
2019-03-27T13:28:21.462Z,51.80
2019-03-27T13:30:52.669Z,54.60
2019-03-27T13:33:23.860Z,58.30
2019-03-27T13:35:55.821Z,61.80
2019-03-27T13:38:26.193Z,63.80
2019-03-27T13:40:59.288Z,59.10
2019-03-27T13:43:34.832Z,52.60
2019-03-27T13:46:05.262Z,49.30
2019-03-27T13:48:45.259Z,50.00
2019-03-27T13:51:16.395Z,53.80
2019-03-27T13:53:47.134Z,59.00
2019-03-27T13:56:18.241Z,62.00
2019-03-27T13:58:53.916Z,65.00
2019-03-27T14:01:26.376Z,72.90
2019-03-27T14:04:00.051Z,77.00
2019-03-27T14:06:33.912Z,78.10
2019-03-27T14:09:06.450Z,83.70
2019-03-27T14:11:43.464Z,87.30
2019-03-27T14:14:16.197Z,84.80
2019-03-27T14:16:50.442Z,85.70
2019-03-27T14:19:22.383Z,89.50
2019-03-27T14:22:08.399Z,91.00
2019-03-27T14:25:00.563Z,92.70
2019-03-27T14:27:45.059Z,91.20
2019-03-27T14:30:20.891Z,91.80
2019-03-27T14:33:04.498Z,91.80
2019-03-27T14:35:41.081Z,83.40
2019-03-27T14:38:12.284Z,81.80
2019-03-27T14:40:44.196Z,78.90
2019-03-27T14:43:15.306Z,77.10
2019-03-27T14:45:46.842Z,76.70
2019-03-27T14:48:21.527Z,77.00
2019-03-27T14:50:54.676Z,77.90
2019-03-27T14:53:29.564Z,81.90
2019-03-27T14:56:02.722Z,88.20
2019-03-27T14:58:34.704Z,87.40
2019-03-27T15:01:08.728Z,89.30
2019-03-27T15:03:40.670Z,90.00
2019-03-27T15:06:14.423Z,90.60
2019-03-27T15:08:54.568Z,89.70
2019-03-27T15:11:27.495Z,90.40
2019-03-27T15:13:59.284Z,91.70
2019-03-27T15:16:37.765Z,90.90
2019-03-27T15:19:12.799Z,90.20
2019-03-27T15:21:51.234Z,91.60
2019-03-27T15:24:24.744Z,91.00
2019-03-27T15:27:09.079Z,90.80
2019-03-27T15:29:47.302Z,91.30
2019-03-27T15:32:34.013Z,91.00
2019-03-27T15:35:14.805Z,90.20
2019-03-27T15:38:03.297Z,91.90
2019-03-27T15:41:08.923Z,92.80
2019-03-27T15:43:45.721Z,94.10
2019-03-27T15:46:24.393Z,93.00
2019-03-27T15:49:07.208Z,93.30
2019-03-27T15:51:40.084Z,94.30
2019-03-27T15:54:28.418Z,93.80
2019-03-27T15:56:59.545Z,93.30
2019-03-27T15:59:49.082Z,93.00
2019-03-27T16:02:23.990Z,93.00
2019-03-27T16:05:21.160Z,93.80
2019-03-27T16:07:40.415Z,92.90
2019-03-27T16:10:18.490Z,90.20
2019-03-27T16:12:53.443Z,84.30
2019-03-27T16:15:25.504Z,88.60
2019-03-27T16:17:55.809Z,89.30
2019-03-27T16:20:29.830Z,90.30
2019-03-27T16:23:05.802Z,91.30
2019-03-27T16:25:40.227Z,90.60
2019-03-27T16:28:14.206Z,91.30
2019-03-27T16:30:51.113Z,92.60
2019-03-27T16:33:29.117Z,93.30
2019-03-27T16:36:25.713Z,93.80
2019-03-27T16:39:00.445Z,93.80
2019-03-27T16:41:36.594Z,93.80
2019-03-27T16:44:15.203Z,94.50
2019-03-27T16:46:55.192Z,95.30
2019-03-27T16:49:27.204Z,96.20
2019-03-27T16:52:22.316Z,96.40
2019-03-27T16:55:00.750Z,95.90
2019-03-27T16:57:47.297Z,95.60
2019-03-27T17:00:19.809Z,95.60
2019-03-27T17:02:52.024Z,95.00
2019-03-27T17:05:26.624Z,95.60
2019-03-27T17:07:58.476Z,96.70
2019-03-27T17:10:50.314Z,98.80
2019-03-27T17:13:24.572Z,99.70
2019-03-27T17:16:05.138Z,99.90
2019-03-27T17:18:38.719Z,99.90
2019-03-27T17:21:17.089Z,99.90
2019-03-27T17:24:00.091Z,99.90
2019-03-27T17:26:38.869Z,99.90
2019-03-27T17:29:13.396Z,99.90
2019-03-27T17:31:48.507Z,99.90
2019-03-27T17:34:35.278Z,99.90
2019-03-27T17:37:37.939Z,99.90
2019-03-27T17:40:27.602Z,99.90
2019-03-27T17:43:09.823Z,99.90
2019-03-27T17:45:41.770Z,99.90
2019-03-27T17:48:20.277Z,99.90
2019-03-27T17:51:12.237Z,99.90
2019-03-27T17:53:59.373Z,99.90
2019-03-27T17:56:33.929Z,99.90
2019-03-27T17:59:05.481Z,99.90
2019-03-27T18:01:41.812Z,99.90
2019-03-27T18:04:22.719Z,99.90
2019-03-27T18:06:55.413Z,99.90
2019-03-27T18:09:26.249Z,99.90
2019-03-27T18:12:01.138Z,99.90
2019-03-27T18:14:38.242Z,99.90
2019-03-27T18:17:13.489Z,99.90
2019-03-27T18:19:52.772Z,99.90
2019-03-27T18:22:25.257Z,99.90
2019-03-27T18:25:12.807Z,99.90
2019-03-27T18:28:13.084Z,99.90
2019-03-27T18:30:50.604Z,99.90
2019-03-27T18:33:26.966Z,99.90
2019-03-27T18:36:24.426Z,99.90
2019-03-27T18:39:18.624Z,99.90
2019-03-27T18:42:13.502Z,99.90
2019-03-27T18:44:52.463Z,99.90
2019-03-27T18:47:47.702Z,99.90
2019-03-27T18:50:34.250Z,99.90
2019-03-27T18:53:17.318Z,99.90
2019-03-27T18:55:51.119Z,99.90
2019-03-27T18:58:30.351Z,99.90
2019-03-27T19:01:11.087Z,99.90
2019-03-27T19:03:43.989Z,99.90
2019-03-27T19:06:24.246Z,99.90
2019-03-27T19:12:26.854Z,99.90
2019-03-27T19:15:13.428Z,99.90
2019-03-27T19:17:45.081Z,99.90
2019-03-27T19:20:27.608Z,99.90
2019-03-27T19:23:26.915Z,99.90
2019-03-27T19:25:58.272Z,99.90
2019-03-27T19:28:55.236Z,99.90
2019-03-27T19:31:34.539Z,99.90
2019-03-27T19:34:06.818Z,99.90
2019-03-27T19:36:44.308Z,99.90
2019-03-27T19:39:18.786Z,99.90
2019-03-27T19:41:54.001Z,99.90
2019-03-27T19:44:26.171Z,99.90
2019-03-27T19:47:11.862Z,99.90
2019-03-27T19:49:47.817Z,99.90
2019-03-27T19:52:40.988Z,99.90
2019-03-27T19:55:39.922Z,99.90
2019-03-27T19:58:14.083Z,99.90
2019-03-27T20:00:59.211Z,99.90
2019-03-27T20:03:34.407Z,99.90
2019-03-27T20:06:09.849Z,99.90
2019-03-27T20:08:43.116Z,99.90
2019-03-27T20:11:30.404Z,99.90
2019-03-27T20:14:00.249Z,99.90
2019-03-27T20:16:41.981Z,99.90
2019-03-27T20:19:18.750Z,99.90
2019-03-27T20:22:00.286Z,99.90
2019-03-27T20:24:40.871Z,99.90
2019-03-27T20:27:10.088Z,99.90
2019-03-27T20:29:53.385Z,99.90
2019-03-27T20:32:25.623Z,99.90
2019-03-27T20:34:58.325Z,99.90
2019-03-27T20:37:44.825Z,99.90
2019-03-27T20:40:27.515Z,99.90
2019-03-27T20:43:03.675Z,99.90
2019-03-27T20:45:38.304Z,99.90
2019-03-27T20:48:16.510Z,99.90
2019-03-27T20:51:05.322Z,99.90
2019-03-27T20:54:01.378Z,99.90
2019-03-27T20:56:39.188Z,99.90
2019-03-27T20:59:19.236Z,99.90
2019-03-27T21:01:55.230Z,99.90
2019-03-27T21:04:28.090Z,99.90
2019-03-27T21:07:03.055Z,99.90
2019-03-27T21:09:41.675Z,99.90
2019-03-27T21:12:17.341Z,99.90
2019-03-27T21:14:52.172Z,99.90
2019-03-27T21:17:29.178Z,99.90
2019-03-27T21:20:03.112Z,99.90
2019-03-27T21:22:34.702Z,99.90
2019-03-27T21:25:27.672Z,99.90
2019-03-27T21:28:13.162Z,99.90
2019-03-27T21:31:00.182Z,99.90
2019-03-27T21:33:44.641Z,99.90
2019-03-27T21:36:27.713Z,99.90
2019-03-27T21:39:08.067Z,99.90
2019-03-27T21:41:49.291Z,99.90
2019-03-27T21:44:35.157Z,99.90
2019-03-27T21:47:03.178Z,99.90
2019-03-27T21:49:34.474Z,99.90
2019-03-27T21:52:09.831Z,99.90
2019-03-27T21:54:45.271Z,99.90
2019-03-27T21:57:20.178Z,99.90
2019-03-27T21:59:59.988Z,99.90
2019-03-27T22:02:35.022Z,99.90
2019-03-27T22:05:12.287Z,99.90
2019-03-27T22:07:51.172Z,99.90
2019-03-27T22:10:33.517Z,99.90
2019-03-27T22:13:08.438Z,99.90
2019-03-27T22:15:39.744Z,99.90
2019-03-27T22:18:12.310Z,99.90
2019-03-27T22:20:43.821Z,99.90
2019-03-27T22:23:17.994Z,99.90
2019-03-27T22:25:55.423Z,99.90
2019-03-27T22:28:32.860Z,99.90
2019-03-27T22:31:05.077Z,99.90
2019-03-27T22:33:51.345Z,99.90
2019-03-27T22:36:35.329Z,99.90
2019-03-27T22:39:10.108Z,99.90
2019-03-27T22:41:44.473Z,99.90
2019-03-27T22:44:15.042Z,99.90
2019-03-27T22:46:47.881Z,99.90
2019-03-27T22:49:20.463Z,99.90
2019-03-27T22:52:01.358Z,99.90
2019-03-27T22:54:45.023Z,99.90
2019-03-27T22:57:18.700Z,99.90
2019-03-27T22:59:52.462Z,99.90
2019-03-27T23:02:25.227Z,99.90
2019-03-27T23:05:00.513Z,99.90
2019-03-27T23:07:52.159Z,99.90
2019-03-27T23:10:29.749Z,99.90
2019-03-27T23:13:08.195Z,99.90
2019-03-27T23:15:45.932Z,99.90
2019-03-27T23:18:22.376Z,99.90
2019-03-27T23:21:09.826Z,99.90
2019-03-27T23:23:44.518Z,99.90
2019-03-27T23:26:20.081Z,99.90
2019-03-27T23:29:09.029Z,99.90
2019-03-27T23:31:41.517Z,99.90
2019-03-27T23:34:13.747Z,99.90
2019-03-27T23:36:44.928Z,99.90
2019-03-27T23:39:15.907Z,99.90
2019-03-27T23:41:46.458Z,99.90
2019-03-27T23:44:18.191Z,99.90
2019-03-27T23:46:53.308Z,99.90
2019-03-27T23:49:26.561Z,99.90
2019-03-27T23:51:57.156Z,99.90
2019-03-27T23:54:28.932Z,99.90
2019-03-27T23:57:06.187Z,99.90
2019-03-27T23:59:43.101Z,99.90
